createdAt,value
2022-12-01T00:01:02.661Z,4.05
2022-12-01T00:03:32.335Z,4.43
2022-12-01T00:06:07.301Z,4.50
2022-12-01T00:08:34.236Z,5.82
2022-12-01T00:11:12.015Z,5.13
2022-12-01T00:13:38.685Z,4.82
2022-12-01T00:16:11.977Z,5.40
2022-12-01T00:18:40.161Z,4.10
2022-12-01T00:21:07.053Z,5.50
2022-12-01T00:23:33.576Z,4.88
2022-12-01T00:26:04.801Z,5.70
2022-12-01T00:28:31.562Z,4.85
2022-12-01T00:30:58.054Z,5.70
2022-12-01T00:33:24.594Z,4.97
2022-12-01T00:35:53.225Z,5.07
2022-12-01T00:38:19.725Z,6.45
2022-12-01T00:40:46.229Z,4.10
2022-12-01T00:43:12.696Z,4.53
2022-12-01T00:45:39.376Z,4.53
2022-12-01T00:48:06.071Z,4.97
2022-12-01T00:50:32.727Z,4.70
2022-12-01T00:52:59.353Z,4.78
2022-12-01T00:55:26.087Z,4.32
2022-12-01T00:57:52.563Z,7.00
2022-12-01T01:00:19.339Z,4.03
2022-12-01T01:02:45.888Z,4.80
2022-12-01T01:05:12.583Z,5.72
2022-12-01T01:07:39.558Z,4.53
2022-12-01T01:10:06.767Z,6.82
2022-12-01T01:12:33.335Z,4.15
2022-12-01T01:14:59.844Z,4.32
2022-12-01T01:17:26.516Z,4.03
2022-12-01T01:19:53.568Z,5.18
2022-12-01T01:22:20.168Z,5.07
2022-12-01T01:24:46.688Z,5.82
2022-12-01T01:27:13.238Z,7.00
2022-12-01T01:29:39.795Z,3.92
2022-12-01T01:32:06.310Z,5.90
2022-12-01T01:34:32.813Z,4.93
2022-12-01T01:36:59.373Z,5.93
2022-12-01T01:39:25.981Z,5.35
2022-12-01T01:41:52.492Z,4.15
2022-12-01T01:44:51.411Z,6.65
2022-12-01T01:47:25.697Z,4.60
2022-12-01T01:49:53.830Z,4.88
2022-12-01T01:52:20.755Z,4.53
2022-12-01T01:54:49.744Z,5.65
2022-12-01T01:57:21.086Z,4.68
2022-12-01T01:59:50.734Z,6.57
2022-12-01T02:04:49.873Z,7.53
2022-12-01T02:07:18.262Z,5.05
2022-12-01T02:09:45.368Z,5.18
2022-12-01T02:12:39.230Z,3.25
2022-12-01T02:15:28.713Z,4.20
2022-12-01T02:18:18.225Z,4.32
2022-12-01T02:21:00.079Z,4.82
2022-12-01T02:23:47.984Z,3.95
2022-12-01T02:26:33.500Z,4.38
2022-12-01T02:29:37.608Z,4.95
2022-12-01T02:32:10.034Z,3.22
2022-12-01T02:34:56.750Z,5.25
2022-12-01T02:37:45.309Z,5.05
2022-12-01T02:40:33.630Z,4.65
2022-12-01T02:43:38.379Z,3.40
2022-12-01T02:46:15.998Z,4.03
2022-12-01T02:48:44.830Z,4.57
2022-12-01T02:51:18.931Z,6.68
2022-12-01T02:54:02.803Z,5.03
2022-12-01T02:56:34.249Z,5.65
2022-12-01T03:02:02.697Z,3.88
2022-12-01T03:05:01.598Z,3.05
2022-12-01T03:07:51.806Z,5.88
2022-12-01T03:10:21.264Z,4.60
2022-12-01T03:13:11.448Z,7.30
2022-12-01T03:16:08.173Z,4.57
2022-12-01T03:18:57.729Z,3.97
2022-12-01T03:24:02.338Z,4.10
2022-12-01T03:26:30.295Z,5.45
2022-12-01T03:29:00.342Z,3.90
2022-12-01T03:31:31.699Z,5.25
2022-12-01T03:34:06.529Z,3.35
2022-12-01T03:36:40.197Z,4.53
2022-12-01T03:39:10.727Z,5.18
2022-12-01T03:42:01.380Z,5.35
2022-12-01T03:44:35.041Z,3.80
2022-12-01T03:47:04.493Z,6.22
2022-12-01T03:49:31.178Z,5.00
2022-12-01T03:52:09.813Z,4.25
2022-12-01T03:54:52.090Z,6.72
2022-12-01T03:57:25.482Z,4.93
2022-12-01T03:59:52.664Z,4.13
2022-12-01T04:02:19.252Z,5.95
2022-12-01T04:04:45.821Z,5.40
2022-12-01T04:07:13.422Z,6.25
2022-12-01T04:09:41.631Z,5.82
2022-12-01T04:12:29.500Z,3.30
2022-12-01T04:15:08.138Z,4.65
2022-12-01T04:17:35.060Z,6.93
2022-12-01T04:20:01.926Z,7.13
2022-12-01T04:22:28.452Z,7.03
2022-12-01T04:24:54.992Z,5.75
2022-12-01T04:27:21.971Z,5.20
2022-12-01T04:29:48.718Z,3.90
2022-12-01T04:32:15.970Z,5.38
2022-12-01T04:34:42.447Z,5.25
2022-12-01T04:37:09.905Z,6.85
2022-12-01T04:39:36.537Z,4.45
2022-12-01T04:42:03.433Z,5.53
2022-12-01T04:44:34.588Z,5.82
2022-12-01T04:47:02.453Z,6.90
2022-12-01T04:49:29.105Z,4.97
2022-12-01T04:51:55.698Z,5.43
2022-12-01T04:54:22.265Z,7.20
2022-12-01T04:56:48.817Z,5.03
2022-12-01T04:59:15.450Z,4.95
2022-12-01T05:01:42.108Z,5.40
2022-12-01T05:04:11.368Z,4.45
2022-12-01T05:06:38.015Z,4.63
2022-12-01T05:09:04.553Z,6.03
2022-12-01T05:11:31.896Z,4.53
2022-12-01T05:13:59.107Z,6.05
2022-12-01T05:16:28.517Z,7.03
2022-12-01T05:19:16.138Z,4.32
2022-12-01T05:21:44.247Z,6.05
2022-12-01T05:24:12.290Z,5.82
2022-12-01T05:26:39.420Z,5.82
2022-12-01T05:29:06.130Z,3.28
2022-12-01T05:31:32.815Z,8.35
2022-12-01T05:33:59.514Z,5.00
2022-12-01T05:36:26.101Z,4.90
2022-12-01T05:38:52.653Z,5.57
2022-12-01T05:41:19.182Z,4.93
2022-12-01T05:43:45.700Z,4.13
2022-12-01T05:46:12.365Z,5.93
2022-12-01T05:48:38.945Z,4.93
2022-12-01T05:51:10.615Z,6.35
2022-12-01T05:53:37.152Z,6.30
2022-12-01T05:56:04.291Z,5.88
2022-12-01T05:58:30.873Z,3.58
2022-12-01T06:00:57.556Z,4.53
2022-12-01T06:03:24.171Z,7.03
2022-12-01T06:05:50.967Z,6.03
2022-12-01T06:08:17.547Z,4.63
2022-12-01T06:10:45.010Z,4.63
2022-12-01T06:13:11.694Z,7.00
2022-12-01T06:15:38.348Z,6.03
2022-12-01T06:18:04.885Z,5.20
2022-12-01T06:20:31.372Z,6.20
2022-12-01T06:22:59.466Z,6.10
2022-12-01T06:25:26.055Z,4.70
2022-12-01T06:27:57.306Z,5.30
2022-12-01T06:30:23.955Z,5.75
2022-12-01T06:32:50.805Z,5.43
2022-12-01T06:35:17.394Z,5.07
2022-12-01T06:37:43.953Z,6.25
2022-12-01T06:40:12.521Z,5.90
2022-12-01T06:42:39.059Z,6.15
2022-12-01T06:45:06.271Z,5.60
2022-12-01T06:47:32.894Z,6.70
2022-12-01T06:49:59.745Z,6.55
2022-12-01T06:52:26.380Z,6.57
2022-12-01T06:54:52.881Z,7.40
2022-12-01T06:57:19.803Z,6.60
2022-12-01T06:59:47.123Z,5.50
2022-12-01T07:02:14.360Z,5.70
2022-12-01T07:04:41.042Z,8.10
2022-12-01T07:07:07.613Z,7.07
2022-12-01T07:09:34.579Z,5.78
2022-12-01T07:12:01.151Z,8.93
2022-12-01T07:14:28.000Z,6.30
2022-12-01T07:16:54.745Z,9.95
2022-12-01T07:19:21.312Z,8.10
2022-12-01T07:21:47.812Z,7.00
2022-12-01T07:24:14.393Z,6.47
2022-12-01T07:26:41.495Z,7.10
2022-12-01T07:29:09.274Z,9.15
2022-12-01T07:31:36.792Z,9.45
2022-12-01T07:34:31.921Z,6.28
2022-12-01T07:36:58.547Z,7.63
2022-12-01T07:39:25.086Z,9.07
2022-12-01T07:41:51.579Z,8.63
2022-12-01T07:44:18.297Z,7.78
2022-12-01T07:46:44.844Z,8.68
2022-12-01T07:49:14.778Z,9.32
2022-12-01T07:51:43.465Z,8.70
2022-12-01T07:54:10.230Z,8.38
2022-12-01T07:56:37.510Z,10.48
2022-12-01T07:59:04.062Z,7.07
2022-12-01T08:01:30.667Z,7.93
2022-12-01T08:03:58.732Z,9.38
2022-12-01T08:06:26.314Z,7.72
2022-12-01T08:08:53.424Z,7.22
2022-12-01T08:11:26.018Z,9.68
2022-12-01T08:14:01.605Z,8.18
2022-12-01T08:16:28.238Z,9.27
2022-12-01T08:18:54.829Z,7.18
2022-12-01T08:21:22.987Z,6.57
2022-12-01T08:23:53.497Z,10.77
2022-12-01T08:26:21.752Z,8.27
2022-12-01T08:28:48.880Z,9.70
2022-12-01T08:31:19.896Z,6.88
2022-12-01T08:33:47.633Z,8.38
2022-12-01T08:36:15.283Z,8.70
2022-12-01T08:38:45.453Z,5.15
2022-12-01T08:41:13.145Z,7.35
2022-12-01T08:43:57.123Z,8.52
2022-12-01T08:46:24.345Z,7.70
2022-12-01T08:48:50.896Z,5.82
2022-12-01T08:51:18.913Z,9.70
2022-12-01T08:53:47.657Z,9.73
2022-12-01T08:56:18.750Z,9.65
2022-12-01T08:58:45.390Z,8.20
2022-12-01T09:01:13.881Z,9.68
2022-12-01T09:03:41.055Z,8.02
2022-12-01T09:06:12.677Z,6.80
2022-12-01T09:08:39.474Z,7.95
2022-12-01T09:11:09.744Z,8.60
2022-12-01T09:13:37.345Z,8.30
2022-12-01T09:16:09.085Z,10.00
2022-12-01T09:18:35.572Z,8.65
2022-12-01T09:21:10.949Z,7.97
2022-12-01T09:23:37.494Z,8.18
2022-12-01T09:26:04.126Z,5.88
2022-12-01T09:28:30.716Z,7.32
2022-12-01T09:30:58.744Z,9.73
2022-12-01T09:33:25.322Z,8.65
2022-12-01T09:35:51.816Z,9.20
2022-12-01T09:38:18.296Z,7.72
2022-12-01T09:40:44.990Z,8.93
2022-12-01T09:43:17.872Z,6.15
2022-12-01T09:45:50.537Z,7.78
2022-12-01T09:48:42.485Z,7.82
2022-12-01T09:51:25.483Z,9.15
2022-12-01T09:53:56.500Z,7.18
2022-12-01T09:56:30.631Z,5.38
2022-12-01T09:58:59.558Z,7.85
2022-12-01T10:01:36.401Z,9.25
2022-12-01T10:04:11.664Z,9.07
2022-12-01T10:06:42.883Z,6.95
2022-12-01T10:09:19.869Z,6.63
2022-12-01T10:11:48.816Z,8.25
2022-12-01T10:14:20.472Z,7.35
2022-12-01T10:17:22.212Z,7.03
2022-12-01T10:20:02.718Z,7.20
2022-12-01T10:22:47.932Z,7.38
2022-12-01T10:25:24.581Z,5.35
2022-12-01T10:27:59.264Z,6.57
2022-12-01T10:30:26.238Z,6.95
2022-12-01T10:32:54.794Z,5.32
2022-12-01T10:35:23.751Z,7.82
2022-12-01T10:37:55.427Z,6.05
2022-12-01T10:40:22.793Z,8.13
2022-12-01T10:42:51.069Z,5.10
2022-12-01T10:45:26.599Z,6.38
2022-12-01T10:48:11.344Z,6.03
2022-12-01T10:50:37.996Z,7.07
2022-12-01T10:53:04.975Z,5.78
2022-12-01T10:55:35.129Z,4.68
2022-12-01T10:58:09.260Z,6.97
2022-12-01T11:03:29.027Z,6.95
2022-12-01T11:06:00.692Z,2.70
2022-12-01T11:08:39.190Z,6.10
2022-12-01T11:11:06.544Z,6.22
2022-12-01T11:13:36.766Z,5.32
2022-12-01T11:16:06.283Z,5.00
2022-12-01T11:18:37.838Z,5.35
2022-12-01T11:21:13.133Z,7.03
2022-12-01T11:23:50.490Z,6.45
2022-12-01T11:26:23.807Z,7.35
2022-12-01T11:29:03.672Z,5.18
2022-12-01T11:31:44.615Z,7.25
2022-12-01T11:34:20.822Z,3.92
2022-12-01T11:36:51.938Z,6.30
2022-12-01T11:39:40.476Z,5.18
2022-12-01T11:42:28.317Z,7.25
2022-12-01T11:44:55.813Z,4.82
2022-12-01T11:47:28.954Z,7.18
2022-12-01T11:50:00.682Z,6.00
2022-12-01T11:52:46.254Z,5.10
2022-12-01T11:55:12.689Z,6.03
2022-12-01T11:57:42.826Z,5.05
2022-12-01T12:00:16.937Z,3.60
2022-12-01T12:03:01.902Z,5.20
2022-12-01T12:05:40.414Z,3.80
2022-12-01T12:08:39.244Z,5.45
2022-12-01T12:11:24.644Z,3.90
2022-12-01T12:14:18.758Z,4.82
2022-12-01T12:17:09.379Z,4.75
2022-12-01T12:23:03.359Z,7.32
2022-12-01T12:26:07.023Z,5.88
2022-12-01T12:28:53.679Z,5.75
2022-12-01T12:32:02.390Z,6.35
2022-12-01T12:35:01.219Z,5.63
2022-12-01T12:37:40.857Z,5.93
2022-12-01T12:40:16.794Z,4.57
2022-12-01T12:43:06.796Z,6.47
2022-12-01T12:46:00.264Z,5.50
2022-12-01T12:48:38.685Z,5.78
2022-12-01T12:51:41.459Z,3.60
2022-12-01T12:54:42.082Z,3.30
2022-12-01T12:57:24.860Z,7.75
2022-12-01T12:59:58.242Z,4.90
2022-12-01T13:02:41.412Z,4.72
2022-12-01T13:05:18.747Z,4.88
2022-12-01T13:07:51.307Z,6.13
2022-12-01T13:10:48.483Z,5.22
2022-12-01T13:13:38.568Z,6.35
2022-12-01T13:16:07.359Z,4.47
2022-12-01T13:18:39.423Z,6.10
2022-12-01T13:21:06.224Z,7.82
2022-12-01T13:23:33.806Z,5.43
2022-12-01T13:26:05.646Z,5.72
2022-12-01T13:28:44.613Z,5.22
2022-12-01T13:31:13.370Z,5.05
2022-12-01T13:33:54.056Z,4.47
2022-12-01T13:36:45.745Z,5.25
2022-12-01T13:39:36.507Z,5.93
2022-12-01T13:42:06.728Z,6.13
2022-12-01T13:44:42.179Z,5.82
2022-12-01T13:47:08.847Z,4.97
2022-12-01T13:49:47.346Z,5.88
2022-12-01T13:52:23.094Z,6.38
2022-12-01T13:55:07.990Z,4.82
2022-12-01T13:57:50.754Z,4.90
2022-12-01T14:00:23.944Z,4.40
2022-12-01T14:03:12.818Z,5.45
2022-12-01T14:05:39.453Z,4.38
2022-12-01T14:08:34.499Z,6.22
2022-12-01T14:11:07.158Z,4.72
2022-12-01T14:13:53.987Z,4.47
2022-12-01T14:16:21.644Z,6.97
2022-12-01T14:18:56.248Z,8.02
2022-12-01T14:21:44.789Z,4.28
2022-12-01T14:24:23.340Z,4.28
2022-12-01T14:26:50.675Z,5.07
2022-12-01T14:29:29.721Z,4.60
2022-12-01T14:32:06.271Z,5.03
2022-12-01T14:34:34.739Z,3.92
2022-12-01T14:37:12.879Z,6.15
2022-12-01T14:40:12.300Z,4.40
2022-12-01T14:43:00.361Z,4.85
2022-12-01T14:45:30.946Z,4.95
2022-12-01T14:48:02.468Z,4.88
2022-12-01T14:50:42.132Z,3.95
2022-12-01T14:55:51.235Z,2.90
2022-12-01T14:58:27.931Z,5.72
2022-12-01T15:01:05.347Z,6.03
2022-12-01T15:03:36.515Z,3.53
2022-12-01T15:06:03.576Z,4.68
2022-12-01T15:08:41.940Z,4.55
2022-12-01T15:11:25.491Z,4.68
2022-12-01T15:13:54.596Z,4.07
2022-12-01T15:16:28.060Z,5.00
2022-12-01T15:18:54.824Z,5.30
2022-12-01T15:21:33.232Z,4.78
2022-12-01T15:24:03.188Z,6.20
2022-12-01T15:26:40.463Z,5.00
2022-12-01T15:29:19.796Z,3.50
2022-12-01T15:31:53.543Z,4.40
2022-12-01T15:34:23.748Z,5.15
2022-12-01T15:36:52.396Z,4.50
2022-12-01T15:39:21.799Z,4.07
2022-12-01T15:41:53.793Z,3.70
2022-12-01T15:44:35.231Z,4.40
2022-12-01T15:47:43.884Z,5.03
2022-12-01T15:50:33.538Z,4.68
2022-12-01T15:53:06.529Z,3.90
2022-12-01T15:55:38.414Z,4.68
2022-12-01T15:58:09.435Z,4.82
2022-12-01T16:00:36.118Z,4.63
2022-12-01T16:03:03.226Z,5.57
2022-12-01T16:05:35.542Z,4.65
2022-12-01T16:08:22.380Z,3.35
2022-12-01T16:11:15.883Z,4.22
2022-12-01T16:13:49.454Z,6.35
2022-12-01T16:16:38.433Z,3.97
2022-12-01T16:19:23.575Z,5.53
2022-12-01T16:22:03.112Z,4.88
2022-12-01T16:24:35.850Z,4.93
2022-12-01T16:27:08.268Z,4.93
2022-12-01T16:29:45.331Z,4.55
2022-12-01T16:32:23.709Z,5.82
2022-12-01T16:34:51.666Z,5.43
2022-12-01T16:37:18.685Z,4.55
2022-12-01T16:39:45.622Z,4.07
2022-12-01T16:42:18.168Z,4.28
2022-12-01T16:44:46.374Z,4.45
2022-12-01T16:47:15.669Z,4.00
2022-12-01T16:49:42.273Z,3.28
2022-12-01T16:52:36.504Z,5.38
2022-12-01T16:54:56.635Z,4.50
2022-12-01T16:57:23.196Z,5.13
2022-12-01T16:59:49.701Z,3.88
2022-12-01T17:02:16.370Z,5.00
2022-12-01T17:04:43.105Z,5.28
2022-12-01T17:07:09.732Z,4.15
2022-12-01T17:09:36.435Z,5.57
2022-12-01T17:12:03.927Z,6.28
2022-12-01T17:14:30.513Z,4.05
2022-12-01T17:17:00.227Z,4.05
2022-12-01T17:19:26.732Z,3.65
2022-12-01T17:21:53.363Z,4.25
2022-12-01T17:24:19.968Z,4.85
2022-12-01T17:26:46.737Z,5.28
2022-12-01T17:29:13.243Z,4.38
2022-12-01T17:31:39.956Z,4.65
2022-12-01T17:34:06.650Z,4.68
2022-12-01T17:36:34.460Z,5.57
2022-12-01T17:39:01.012Z,4.50
2022-12-01T17:41:32.430Z,4.97
2022-12-01T17:44:02.208Z,4.25
2022-12-01T17:46:30.088Z,5.20
2022-12-01T17:48:56.901Z,4.28
2022-12-01T17:51:23.538Z,3.80
2022-12-01T17:53:50.222Z,4.82
2022-12-01T17:56:17.375Z,4.63
2022-12-01T17:58:44.183Z,4.40
2022-12-01T18:01:16.577Z,4.70
2022-12-01T18:03:43.470Z,4.00
2022-12-01T18:06:13.097Z,3.88
2022-12-01T18:08:40.349Z,4.97
2022-12-01T18:11:12.574Z,4.00
2022-12-01T18:13:41.349Z,4.28
2022-12-01T18:16:13.932Z,4.25
2022-12-01T18:18:40.888Z,4.05
2022-12-01T18:21:12.515Z,4.07
2022-12-01T18:23:43.089Z,4.45
2022-12-01T18:26:15.821Z,4.47
2022-12-01T18:28:43.289Z,5.03
2022-12-01T18:31:15.448Z,4.30
2022-12-01T18:33:43.549Z,3.63
2022-12-01T18:36:14.178Z,6.95
2022-12-01T18:38:40.992Z,4.40
2022-12-01T18:41:08.127Z,3.00
2022-12-01T18:43:35.000Z,3.80
2022-12-01T18:46:03.015Z,6.57
2022-12-01T18:48:30.742Z,4.03
2022-12-01T18:51:02.450Z,5.28
2022-12-01T18:53:29.101Z,3.70
2022-12-01T18:55:55.708Z,3.83
2022-12-01T18:58:22.276Z,2.92
2022-12-01T19:00:48.889Z,3.42
2022-12-01T19:03:15.859Z,5.82
2022-12-01T19:05:42.506Z,4.32
2022-12-01T19:08:09.151Z,4.38
2022-12-01T19:10:36.636Z,4.28
2022-12-01T19:13:03.555Z,4.13
2022-12-01T19:15:30.091Z,4.50
2022-12-01T19:17:57.141Z,4.72
2022-12-01T19:20:23.626Z,4.80
2022-12-01T19:22:50.229Z,4.07
2022-12-01T19:25:17.462Z,4.55
2022-12-01T19:27:44.338Z,3.42
2022-12-01T19:30:11.295Z,5.45
2022-12-01T19:32:38.687Z,5.07
2022-12-01T19:35:05.640Z,4.85
2022-12-01T19:37:32.244Z,5.28
2022-12-01T19:39:59.033Z,4.72
2022-12-01T19:42:25.732Z,5.38
2022-12-01T19:44:52.524Z,4.68
2022-12-01T19:47:22.369Z,4.22
2022-12-01T19:52:16.038Z,3.95
2022-12-01T19:54:42.686Z,3.53
2022-12-01T19:57:09.249Z,3.58
2022-12-01T19:59:35.854Z,4.60
2022-12-01T20:02:02.494Z,4.15
2022-12-01T20:04:31.483Z,3.50
2022-12-01T20:06:58.087Z,4.72
2022-12-01T20:09:24.716Z,4.68
2022-12-01T20:11:51.325Z,3.00
2022-12-01T20:14:17.839Z,4.15
2022-12-01T20:16:44.514Z,3.95
2022-12-01T20:19:11.250Z,4.05
2022-12-01T20:21:44.809Z,4.20
2022-12-01T20:24:15.833Z,3.10
2022-12-01T20:26:48.182Z,3.97
2022-12-01T20:29:18.101Z,4.22
2022-12-01T20:31:45.206Z,3.05
2022-12-01T20:34:14.815Z,4.55
2022-12-01T20:36:41.571Z,5.22
2022-12-01T20:39:09.404Z,4.88
2022-12-01T20:41:36.240Z,4.82
2022-12-01T20:44:07.313Z,4.68
2022-12-01T20:46:35.595Z,7.20
2022-12-01T20:49:03.012Z,5.88
2022-12-01T20:51:33.368Z,4.68
2022-12-01T20:54:26.898Z,4.45
2022-12-01T20:56:49.153Z,2.83
2022-12-01T20:59:15.776Z,4.15
2022-12-01T21:01:42.464Z,4.07
2022-12-01T21:04:18.336Z,5.13
2022-12-01T21:06:45.143Z,3.95
2022-12-01T21:09:13.040Z,5.25
2022-12-01T21:12:06.910Z,5.22
2022-12-01T21:14:49.141Z,3.80
2022-12-01T21:17:31.508Z,4.13
2022-12-01T21:20:17.925Z,4.35
2022-12-01T21:22:46.006Z,3.90
2022-12-01T21:25:15.771Z,5.20
2022-12-01T21:30:18.557Z,3.20
2022-12-01T21:32:46.486Z,3.97
2022-12-01T21:35:19.090Z,4.00
2022-12-01T21:37:47.138Z,5.40
2022-12-01T21:40:15.620Z,4.68
2022-12-01T21:42:42.399Z,2.78
2022-12-01T21:45:29.196Z,4.30
2022-12-01T21:48:00.324Z,4.53
2022-12-01T21:50:27.338Z,4.28
2022-12-01T21:52:53.869Z,3.95
2022-12-01T21:55:20.364Z,4.18
2022-12-01T21:57:48.880Z,4.32
2022-12-01T22:00:31.290Z,6.40
2022-12-01T22:03:26.093Z,2.70
2022-12-01T22:06:28.202Z,2.95
2022-12-01T22:08:50.488Z,3.63
2022-12-01T22:13:49.625Z,3.83
2022-12-01T22:16:24.953Z,3.33
2022-12-01T22:19:29.540Z,3.95
2022-12-01T22:22:11.588Z,4.05
2022-12-01T22:24:42.640Z,3.92
2022-12-01T22:27:35.401Z,3.35
2022-12-01T22:30:05.636Z,4.03
2022-12-01T22:33:00.888Z,4.47
2022-12-01T22:35:48.220Z,5.07
2022-12-01T22:38:28.304Z,4.50
2022-12-01T22:41:02.573Z,3.40
2022-12-01T22:43:32.883Z,3.65
2022-12-01T22:45:59.399Z,4.13
2022-12-01T22:48:34.543Z,5.32
2022-12-01T22:51:09.294Z,3.55
2022-12-01T22:53:35.823Z,3.13
2022-12-01T22:56:15.785Z,4.70
2022-12-01T22:58:42.301Z,3.53
2022-12-01T23:01:20.780Z,3.47
2022-12-01T23:03:48.771Z,5.35
2022-12-01T23:06:45.087Z,2.72
2022-12-01T23:09:13.587Z,3.50
2022-12-01T23:11:42.998Z,4.75
2022-12-01T23:14:20.510Z,2.85
2022-12-01T23:16:47.052Z,3.38
2022-12-01T23:19:13.686Z,4.40
2022-12-01T23:21:40.326Z,4.32
2022-12-01T23:24:15.121Z,4.82
2022-12-01T23:26:45.047Z,4.30
2022-12-01T23:29:12.294Z,4.47
2022-12-01T23:31:39.041Z,5.20
2022-12-01T23:34:16.320Z,5.03
2022-12-01T23:36:43.366Z,4.18
2022-12-01T23:39:17.615Z,5.25
2022-12-01T23:41:50.680Z,4.95
2022-12-01T23:44:42.841Z,3.60
2022-12-01T23:47:21.751Z,4.50
2022-12-01T23:49:54.619Z,3.85
2022-12-01T23:52:21.334Z,5.03
2022-12-01T23:54:48.438Z,4.40
2022-12-01T23:57:22.926Z,4.05
2022-12-01T23:59:50.595Z,3.63
